createdAt,value
2022-09-07T00:01:25.478Z,3.67
2022-09-07T00:03:56.471Z,4.60
2022-09-07T00:06:26.263Z,4.50
2022-09-07T00:08:54.712Z,4.17
2022-09-07T00:11:24.464Z,4.30
2022-09-07T00:13:52.938Z,4.20
2022-09-07T00:16:24.213Z,4.13
2022-09-07T00:18:54.894Z,4.57
2022-09-07T00:21:24.005Z,4.03
2022-09-07T00:23:53.455Z,4.13
2022-09-07T00:26:25.427Z,4.60
2022-09-07T00:28:57.268Z,3.60
2022-09-07T00:31:26.192Z,3.90
2022-09-07T00:33:55.492Z,5.40
2022-09-07T00:36:24.273Z,4.63
2022-09-07T00:38:53.299Z,4.10
2022-09-07T00:41:24.177Z,4.67
2022-09-07T00:43:54.584Z,4.93
2022-09-07T00:46:25.815Z,4.43
2022-09-07T00:49:00.040Z,4.60
2022-09-07T00:51:32.534Z,4.13
2022-09-07T00:54:05.478Z,3.53
2022-09-07T00:56:38.936Z,4.00
2022-09-07T00:59:08.526Z,4.40
2022-09-07T01:01:37.734Z,3.47
2022-09-07T01:04:06.728Z,3.73
2022-09-07T01:06:36.944Z,3.73
2022-09-07T01:09:08.075Z,3.87
2022-09-07T01:11:38.502Z,3.93
2022-09-07T01:14:09.685Z,2.77
2022-09-07T01:16:55.441Z,2.90
2022-09-07T01:19:50.656Z,3.27
2022-09-07T01:22:39.399Z,4.10
2022-09-07T01:25:11.764Z,3.03
2022-09-07T01:28:03.904Z,2.80
2022-09-07T01:30:35.791Z,2.63
2022-09-07T01:33:34.215Z,2.37
2022-09-07T01:36:17.479Z,2.63
2022-09-07T01:38:48.222Z,3.10
2022-09-07T01:41:22.458Z,2.80
2022-09-07T01:43:58.433Z,3.20
2022-09-07T01:46:29.735Z,2.60
2022-09-07T01:49:05.945Z,2.90
2022-09-07T01:51:40.224Z,3.43
2022-09-07T01:54:14.759Z,2.77
2022-09-07T01:56:46.635Z,3.03
2022-09-07T01:59:21.219Z,3.27
2022-09-07T02:01:55.630Z,3.00
2022-09-07T02:04:31.803Z,3.30
2022-09-07T02:07:06.118Z,4.03
2022-09-07T02:09:41.936Z,3.77
2022-09-07T02:12:15.920Z,4.20
2022-09-07T02:14:52.717Z,3.83
2022-09-07T02:17:29.661Z,4.17
2022-09-07T02:20:04.991Z,3.50
2022-09-07T02:22:38.758Z,4.13
2022-09-07T02:25:10.148Z,3.80
2022-09-07T02:27:42.428Z,3.70
2022-09-07T02:30:13.563Z,3.87
2022-09-07T02:32:42.436Z,4.23
2022-09-07T02:35:11.231Z,4.63
2022-09-07T02:37:40.839Z,3.40
2022-09-07T02:40:10.621Z,4.07
2022-09-07T02:42:40.153Z,3.93
2022-09-07T02:45:12.318Z,4.77
2022-09-07T02:47:56.119Z,3.50
2022-09-07T02:50:35.440Z,3.53
2022-09-07T02:53:17.802Z,3.70
2022-09-07T02:55:58.095Z,3.43
2022-09-07T02:58:35.864Z,3.37
2022-09-07T03:01:09.998Z,3.37
2022-09-07T03:03:47.596Z,3.33
2022-09-07T03:06:24.511Z,3.20
2022-09-07T03:08:56.944Z,3.30
2022-09-07T03:11:25.779Z,3.43
2022-09-07T03:13:54.252Z,3.10
2022-09-07T03:16:22.740Z,2.87
2022-09-07T03:18:52.827Z,3.50
2022-09-07T03:21:21.573Z,3.20
2022-09-07T03:23:51.849Z,3.20
2022-09-07T03:26:25.112Z,2.80
2022-09-07T03:28:53.721Z,2.93
2022-09-07T03:31:22.249Z,2.90
2022-09-07T03:33:52.128Z,2.97
2022-09-07T03:36:20.553Z,3.07
2022-09-07T03:38:49.278Z,3.13
2022-09-07T03:41:17.713Z,2.80
2022-09-07T03:43:46.136Z,3.13
2022-09-07T03:46:18.088Z,2.83
2022-09-07T03:48:48.111Z,3.07
2022-09-07T03:51:19.271Z,3.17
2022-09-07T03:53:48.440Z,3.67
2022-09-07T03:56:19.085Z,2.80
2022-09-07T03:58:49.066Z,3.30
2022-09-07T04:01:19.584Z,2.70
2022-09-07T04:03:48.651Z,3.07
2022-09-07T04:06:19.406Z,2.90
2022-09-07T04:08:48.029Z,3.03
2022-09-07T04:11:18.327Z,3.23
2022-09-07T04:13:47.214Z,2.67
2022-09-07T04:16:19.256Z,3.17
2022-09-07T04:18:49.681Z,3.00
2022-09-07T04:21:19.710Z,2.93
2022-09-07T04:23:48.151Z,2.83
2022-09-07T04:26:18.605Z,2.80
2022-09-07T04:28:47.801Z,3.23
2022-09-07T04:31:17.919Z,2.97
2022-09-07T04:33:48.439Z,3.70
2022-09-07T04:36:20.714Z,3.50
2022-09-07T04:38:54.729Z,4.07
2022-09-07T04:41:24.809Z,4.23
2022-09-07T04:43:55.712Z,4.70
2022-09-07T04:46:26.324Z,4.70
2022-09-07T04:48:56.533Z,4.83
2022-09-07T04:51:28.498Z,5.33
2022-09-07T04:53:58.525Z,5.47
2022-09-07T04:56:27.188Z,4.53
2022-09-07T04:58:55.680Z,5.07
2022-09-07T05:01:25.630Z,4.37
2022-09-07T05:03:54.380Z,4.50
2022-09-07T05:06:23.783Z,4.47
2022-09-07T05:08:54.720Z,4.77
2022-09-07T05:11:28.660Z,4.50
2022-09-07T05:13:58.070Z,4.20
2022-09-07T05:16:27.916Z,4.80
2022-09-07T05:18:58.291Z,5.70
2022-09-07T05:21:28.408Z,4.77
2022-09-07T05:23:59.739Z,5.00
2022-09-07T05:26:30.444Z,5.23
2022-09-07T05:31:51.257Z,5.30
2022-09-07T05:34:35.482Z,4.93
2022-09-07T05:37:04.263Z,5.57
2022-09-07T05:39:34.089Z,5.03
2022-09-07T05:42:02.567Z,5.70
2022-09-07T05:44:47.166Z,5.33
2022-09-07T05:47:15.820Z,5.07
2022-09-07T05:49:44.253Z,4.93
2022-09-07T05:52:12.901Z,5.00
2022-09-07T05:54:43.422Z,4.83
2022-09-07T05:57:12.589Z,5.73
2022-09-07T05:59:41.129Z,5.63
2022-09-07T06:02:14.133Z,5.30
2022-09-07T06:04:42.918Z,5.67
2022-09-07T06:07:21.692Z,6.10
2022-09-07T06:12:43.435Z,6.03
2022-09-07T06:15:15.433Z,6.07
2022-09-07T06:17:44.085Z,5.50
2022-09-07T06:20:12.531Z,5.37
2022-09-07T06:22:41.558Z,5.67
2022-09-07T06:25:11.592Z,5.50
2022-09-07T06:27:40.128Z,5.97
2022-09-07T06:30:09.639Z,5.67
2022-09-07T06:35:12.277Z,6.97
2022-09-07T06:37:40.912Z,6.73
2022-09-07T06:40:12.084Z,7.43
2022-09-07T06:42:40.953Z,7.70
2022-09-07T06:45:12.035Z,7.90
2022-09-07T06:47:41.092Z,7.97
2022-09-07T06:50:10.919Z,7.97
2022-09-07T06:55:29.876Z,8.47
2022-09-07T06:57:58.336Z,10.57
2022-09-07T07:00:26.917Z,9.07
2022-09-07T07:02:56.433Z,9.77
2022-09-07T07:05:25.066Z,8.50
2022-09-07T07:07:53.710Z,8.37
2022-09-07T07:10:24.766Z,8.80
2022-09-07T07:12:57.990Z,7.80
2022-09-07T07:15:29.377Z,7.40
2022-09-07T07:18:09.497Z,8.13
2022-09-07T07:20:43.272Z,7.10
2022-09-07T07:23:12.892Z,7.07
2022-09-07T07:25:41.332Z,6.43
2022-09-07T07:31:04.846Z,7.07
2022-09-07T07:36:25.268Z,7.17
2022-09-07T07:44:21.462Z,8.03
2022-09-07T07:46:50.892Z,6.70
2022-09-07T07:49:19.647Z,6.30
2022-09-07T07:54:36.998Z,5.87
2022-09-07T07:57:06.174Z,7.40
2022-09-07T07:59:36.059Z,7.40
2022-09-07T08:02:05.815Z,6.47
2022-09-07T08:04:35.508Z,6.70
2022-09-07T08:07:10.137Z,7.27
2022-09-07T08:09:41.351Z,7.13
2022-09-07T08:12:11.482Z,6.83
2022-09-07T08:14:42.184Z,7.70
2022-09-07T08:17:12.490Z,7.73
2022-09-07T08:19:41.194Z,8.67
2022-09-07T08:22:10.583Z,8.73
2022-09-07T08:24:39.028Z,8.50
2022-09-07T08:27:07.643Z,9.03
2022-09-07T08:29:36.634Z,9.77
2022-09-07T08:32:08.032Z,10.33
2022-09-07T08:34:37.882Z,9.50
2022-09-07T08:37:06.353Z,10.53
2022-09-07T08:39:35.853Z,10.80
2022-09-07T08:42:18.362Z,11.00
2022-09-07T08:44:50.174Z,10.77
2022-09-07T08:47:29.007Z,10.17
2022-09-07T08:50:03.749Z,9.30
2022-09-07T08:52:43.605Z,9.70
2022-09-07T08:55:16.949Z,9.57
2022-09-07T08:57:50.412Z,10.57
2022-09-07T09:00:20.161Z,11.70
2022-09-07T09:05:45.069Z,9.60
2022-09-07T09:08:31.048Z,9.57
2022-09-07T09:11:07.260Z,9.20
2022-09-07T09:13:52.098Z,10.67
2022-09-07T09:16:36.686Z,8.87
2022-09-07T09:19:22.108Z,9.27
2022-09-07T09:21:53.591Z,9.37
2022-09-07T09:24:33.488Z,7.93
2022-09-07T09:27:02.001Z,8.97
2022-09-07T09:29:30.458Z,8.77
2022-09-07T09:31:58.894Z,9.30
2022-09-07T09:34:31.207Z,7.73
2022-09-07T09:37:01.885Z,8.10
2022-09-07T09:39:33.085Z,7.67
2022-09-07T09:42:16.284Z,8.20
2022-09-07T09:44:45.603Z,7.10
2022-09-07T09:47:30.578Z,7.07
2022-09-07T09:50:04.274Z,7.43
2022-09-07T09:52:47.565Z,7.67
2022-09-07T09:55:34.939Z,7.50
2022-09-07T10:03:59.537Z,7.30
2022-09-07T10:06:33.089Z,7.20
2022-09-07T10:09:03.152Z,6.03
2022-09-07T10:14:35.526Z,6.77
2022-09-07T10:17:13.706Z,6.60
2022-09-07T10:19:44.649Z,6.00
2022-09-07T10:22:32.166Z,5.20
2022-09-07T10:25:01.860Z,6.00
2022-09-07T10:27:34.144Z,5.87
2022-09-07T10:30:06.849Z,5.63
2022-09-07T10:32:54.712Z,5.00
2022-09-07T10:35:28.767Z,4.80
2022-09-07T10:38:17.708Z,5.07
2022-09-07T10:40:49.698Z,4.63
2022-09-07T10:43:37.779Z,4.67
2022-09-07T10:49:24.010Z,3.97
2022-09-07T10:52:02.730Z,3.70
2022-09-07T10:54:45.015Z,3.35
2022-09-07T10:57:39.915Z,3.73
2022-09-07T11:00:13.010Z,2.70
2022-09-07T11:06:09.547Z,2.63
2022-09-07T11:14:37.901Z,2.15
2022-09-07T11:17:13.682Z,1.80
2022-09-07T11:19:48.400Z,2.65
2022-09-07T11:22:23.777Z,2.30
2022-09-07T11:27:50.672Z,2.90
2022-09-07T11:30:22.333Z,2.42
2022-09-07T11:33:03.492Z,2.10
2022-09-07T11:35:41.985Z,2.42
2022-09-07T11:38:25.610Z,1.95
2022-09-07T11:41:05.004Z,2.03
2022-09-07T11:43:41.264Z,2.10
2022-09-07T11:46:16.330Z,1.73
2022-09-07T11:48:48.731Z,1.80
2022-09-07T11:51:22.394Z,1.80
2022-09-07T11:53:55.031Z,2.17
2022-09-07T11:56:28.048Z,2.07
2022-09-07T11:59:15.472Z,1.97
2022-09-07T12:01:56.622Z,1.77
2022-09-07T12:04:51.706Z,1.95
2022-09-07T12:07:42.287Z,1.85
2022-09-07T12:10:28.442Z,1.52
2022-09-07T12:13:21.943Z,2.38
2022-09-07T12:16:01.205Z,1.77
2022-09-07T12:18:48.950Z,1.67
2022-09-07T12:21:35.201Z,2.05
2022-09-07T12:24:04.916Z,2.40
2022-09-07T12:26:52.263Z,2.28
2022-09-07T12:29:24.011Z,1.90
2022-09-07T12:31:58.312Z,2.45
2022-09-07T12:34:53.209Z,2.05
2022-09-07T12:37:45.565Z,2.05
2022-09-07T12:40:49.042Z,1.95
2022-09-07T12:43:46.021Z,2.13
2022-09-07T12:46:36.725Z,2.05
2022-09-07T12:49:15.780Z,1.80
2022-09-07T12:52:15.174Z,1.95
2022-09-07T12:54:44.975Z,1.42
2022-09-07T12:57:29.874Z,1.27
2022-09-07T13:00:11.109Z,1.58
2022-09-07T13:06:17.256Z,1.33
2022-09-07T13:09:16.752Z,1.15
2022-09-07T13:11:45.781Z,1.30
2022-09-07T13:14:23.366Z,1.73
2022-09-07T13:17:42.327Z,1.30
2022-09-07T13:20:30.143Z,1.20
2022-09-07T13:23:23.163Z,1.60
2022-09-07T13:25:54.442Z,1.30
2022-09-07T13:28:28.373Z,1.27
2022-09-07T13:31:32.936Z,1.20
2022-09-07T13:34:01.483Z,0.80
2022-09-07T13:36:41.448Z,1.02
2022-09-07T13:39:15.747Z,1.52
2022-09-07T13:41:49.798Z,1.23
2022-09-07T13:44:26.271Z,1.38
2022-09-07T13:47:12.647Z,0.80
2022-09-07T13:50:02.322Z,0.85
2022-09-07T13:52:47.205Z,0.77
2022-09-07T13:55:28.752Z,0.70
2022-09-07T13:58:09.619Z,0.95
2022-09-07T14:00:38.295Z,1.02
2022-09-07T14:03:14.282Z,0.70
2022-09-07T14:05:43.083Z,0.90
2022-09-07T14:08:25.867Z,1.20
2022-09-07T14:10:55.732Z,0.90
2022-09-07T14:13:24.167Z,0.80
2022-09-07T14:15:55.607Z,0.90
2022-09-07T14:18:31.052Z,0.85
2022-09-07T14:20:59.520Z,1.10
2022-09-07T14:23:30.393Z,1.00
2022-09-07T14:26:16.532Z,0.80
2022-09-07T14:28:47.541Z,0.82
2022-09-07T14:31:18.586Z,1.02
2022-09-07T14:33:52.120Z,0.73
2022-09-07T14:39:17.886Z,0.90
2022-09-07T14:41:48.156Z,1.10
2022-09-07T14:44:31.279Z,0.90
2022-09-07T14:47:02.480Z,1.23
2022-09-07T14:49:31.024Z,1.00
2022-09-07T14:52:00.716Z,0.93
2022-09-07T14:54:31.871Z,0.98
2022-09-07T14:57:07.595Z,1.20
2022-09-07T14:59:42.366Z,1.13
2022-09-07T15:02:26.203Z,0.60
2022-09-07T15:05:23.444Z,1.15
2022-09-07T15:07:54.219Z,1.00
2022-09-07T15:11:32.829Z,1.15
2022-09-07T15:13:37.560Z,2.22
2022-09-07T15:16:08.389Z,0.80
2022-09-07T15:18:57.736Z,0.73
2022-09-07T15:21:28.100Z,0.80
2022-09-07T15:23:58.509Z,1.17
2022-09-07T15:29:23.221Z,0.93
2022-09-07T15:32:02.321Z,1.10
2022-09-07T15:34:32.507Z,0.80
2022-09-07T15:37:02.415Z,1.00
2022-09-07T15:39:34.428Z,0.97
2022-09-07T15:42:59.556Z,0.80
2022-09-07T15:44:53.861Z,1.00
2022-09-07T15:50:11.425Z,0.80
2022-09-07T15:52:39.942Z,0.90
2022-09-07T15:55:09.754Z,1.10
2022-09-07T15:58:08.761Z,0.93
2022-09-07T16:00:28.316Z,1.20
2022-09-07T16:03:05.015Z,0.93
2022-09-07T16:05:34.034Z,0.77
2022-09-07T16:10:54.268Z,0.80
2022-09-07T16:13:24.692Z,1.10
2022-09-07T16:15:54.613Z,0.73
2022-09-07T16:18:23.058Z,0.63
2022-09-07T16:20:52.944Z,0.97
2022-09-07T16:23:21.694Z,1.07
2022-09-07T16:25:57.550Z,1.00
2022-09-07T16:28:26.657Z,0.90
2022-09-07T16:30:56.608Z,0.87
2022-09-07T16:33:33.034Z,0.90
2022-09-07T16:36:09.178Z,0.90
2022-09-07T16:38:45.557Z,1.00
2022-09-07T16:41:15.284Z,0.97
2022-09-07T16:43:44.059Z,1.00
2022-09-07T16:46:17.403Z,0.97
2022-09-07T16:48:46.086Z,1.23
2022-09-07T16:51:16.689Z,1.23
2022-09-07T16:53:45.104Z,0.90
2022-09-07T16:56:16.665Z,0.70
2022-09-07T16:58:47.098Z,1.00
2022-09-07T17:01:19.175Z,2.00
2022-09-07T17:03:49.385Z,1.07
2022-09-07T17:06:20.203Z,0.70
2022-09-07T17:08:48.981Z,0.90
2022-09-07T17:11:19.419Z,1.10
2022-09-07T17:13:48.897Z,0.88
2022-09-07T17:16:20.960Z,1.10
2022-09-07T17:21:41.822Z,1.10
2022-09-07T17:24:11.887Z,0.77
2022-09-07T17:26:42.711Z,1.73
2022-09-07T17:29:13.095Z,1.37
2022-09-07T17:34:32.136Z,1.30
2022-09-07T17:37:01.296Z,1.00
2022-09-07T17:39:30.602Z,1.20
2022-09-07T17:41:59.164Z,1.20
2022-09-07T17:44:32.084Z,1.13
2022-09-07T17:47:06.143Z,1.50
2022-09-07T17:49:34.811Z,1.00
2022-09-07T17:52:03.890Z,1.07
2022-09-07T17:54:32.844Z,1.00
2022-09-07T17:57:01.556Z,1.00
2022-09-07T18:02:20.267Z,1.47
2022-09-07T18:04:49.196Z,1.03
2022-09-07T18:07:17.775Z,1.00
2022-09-07T18:09:46.238Z,1.37
2022-09-07T18:12:14.755Z,0.90
2022-09-07T18:14:43.756Z,1.13
2022-09-07T18:17:12.580Z,1.27
2022-09-07T18:19:42.487Z,1.37
2022-09-07T18:22:10.901Z,1.10
2022-09-07T18:24:39.494Z,1.37
2022-09-07T18:27:08.233Z,1.77
2022-09-07T18:29:37.300Z,1.80
2022-09-07T18:32:09.913Z,1.53
2022-09-07T18:34:40.578Z,1.50
2022-09-07T18:37:12.314Z,1.50
2022-09-07T18:39:41.616Z,1.50
2022-09-07T18:42:10.595Z,1.50
2022-09-07T18:47:29.068Z,1.30
2022-09-07T18:49:58.371Z,1.17
2022-09-07T18:55:17.732Z,1.40
2022-09-07T18:57:46.135Z,1.53
2022-09-07T19:00:15.124Z,1.67
2022-09-07T19:02:43.617Z,1.60
2022-09-07T19:08:03.794Z,1.10
2022-09-07T19:10:35.901Z,1.10
2022-09-07T19:13:04.967Z,1.07
2022-09-07T19:15:37.510Z,1.67
2022-09-07T19:18:08.657Z,1.57
2022-09-07T19:20:37.593Z,1.30
2022-09-07T19:23:07.771Z,1.33
2022-09-07T19:25:41.099Z,1.30
2022-09-07T19:28:10.212Z,2.10
2022-09-07T19:30:38.664Z,1.40
2022-09-07T19:33:09.856Z,1.77
2022-09-07T19:35:38.381Z,1.37
2022-09-07T19:38:08.218Z,1.60
2022-09-07T19:40:36.667Z,1.40
2022-09-07T19:43:05.418Z,1.53
2022-09-07T19:45:37.685Z,1.40
2022-09-07T19:48:06.193Z,1.57
2022-09-07T19:50:34.676Z,1.33
2022-09-07T19:53:03.141Z,1.53
2022-09-07T19:55:32.940Z,1.97
2022-09-07T19:58:01.409Z,1.40
2022-09-07T20:00:30.246Z,1.83
2022-09-07T20:02:58.758Z,1.30
2022-09-07T20:05:30.974Z,1.40
2022-09-07T20:07:59.467Z,1.50
2022-09-07T20:10:27.893Z,1.43
2022-09-07T20:12:57.765Z,1.33
2022-09-07T20:15:26.291Z,1.77
2022-09-07T20:17:54.865Z,1.30
2022-09-07T20:20:23.348Z,1.50
2022-09-07T20:22:51.896Z,1.70
2022-09-07T20:25:20.340Z,2.17
2022-09-07T20:27:48.676Z,2.97
2022-09-07T20:30:18.776Z,2.40
2022-09-07T20:32:47.221Z,1.90
2022-09-07T20:35:15.832Z,1.63
2022-09-07T20:37:44.517Z,1.47
2022-09-07T20:40:12.977Z,1.90
2022-09-07T20:42:41.645Z,1.83
2022-09-07T20:45:11.089Z,2.20
2022-09-07T20:47:40.883Z,1.93
2022-09-07T20:50:09.866Z,2.58
2022-09-07T20:52:38.320Z,1.80
2022-09-07T20:55:07.859Z,2.13
2022-09-07T20:57:37.844Z,1.23
2022-09-07T21:00:08.677Z,2.10
2022-09-07T21:02:37.546Z,1.90
2022-09-07T21:05:07.820Z,1.50
2022-09-07T21:07:38.645Z,2.00
2022-09-07T21:10:08.229Z,2.30
2022-09-07T21:12:37.086Z,2.13
2022-09-07T21:15:06.292Z,1.80
2022-09-07T21:17:34.794Z,1.97
2022-09-07T21:20:03.835Z,1.97
2022-09-07T21:22:33.647Z,2.20
2022-09-07T21:25:03.000Z,1.90
2022-09-07T21:27:38.578Z,1.80
2022-09-07T21:30:08.295Z,3.03
2022-09-07T21:32:36.796Z,2.33
2022-09-07T21:35:05.736Z,1.93
2022-09-07T21:37:35.571Z,1.80
2022-09-07T21:40:05.741Z,2.10
2022-09-07T21:42:34.221Z,2.50
2022-09-07T21:45:02.703Z,2.10
2022-09-07T21:47:31.155Z,1.43
2022-09-07T21:49:59.932Z,1.40
2022-09-07T21:52:28.371Z,2.10
2022-09-07T21:54:58.259Z,2.60
2022-09-07T21:57:26.695Z,2.27
2022-09-07T21:59:55.103Z,2.33
2022-09-07T22:02:23.690Z,2.30
2022-09-07T22:04:52.248Z,2.57
2022-09-07T22:07:20.824Z,3.10
2022-09-07T22:09:49.243Z,2.50
2022-09-07T22:12:19.187Z,2.53
2022-09-07T22:14:47.654Z,2.63
2022-09-07T22:17:16.128Z,2.50
2022-09-07T22:19:45.049Z,2.27
2022-09-07T22:22:13.464Z,2.27
2022-09-07T22:24:41.862Z,2.03
2022-09-07T22:27:10.292Z,2.07
2022-09-07T22:29:40.093Z,2.57
2022-09-07T22:32:08.573Z,1.67
2022-09-07T22:34:37.012Z,2.23
2022-09-07T22:37:05.556Z,1.90
2022-09-07T22:39:34.054Z,2.53
2022-09-07T22:42:02.480Z,2.50
2022-09-07T22:44:30.917Z,2.00
2022-09-07T22:47:00.796Z,2.33
2022-09-07T22:49:29.900Z,1.93
2022-09-07T22:51:58.331Z,2.20
2022-09-07T22:54:26.848Z,1.90
2022-09-07T22:56:55.256Z,2.30
2022-09-07T22:59:23.767Z,1.53
2022-09-07T23:01:52.233Z,1.90
2022-09-07T23:04:22.182Z,2.00
2022-09-07T23:06:50.717Z,1.63
2022-09-07T23:09:20.767Z,1.90
2022-09-07T23:11:49.999Z,1.77
2022-09-07T23:14:21.756Z,2.43
2022-09-07T23:16:51.056Z,2.10
2022-09-07T23:19:21.615Z,2.33
2022-09-07T23:21:50.073Z,1.90
2022-09-07T23:24:19.680Z,1.90
2022-09-07T23:26:48.760Z,1.77
2022-09-07T23:29:17.479Z,1.77
2022-09-07T23:31:47.987Z,2.47
2022-09-07T23:34:16.528Z,2.07
2022-09-07T23:36:46.412Z,1.60
2022-09-07T23:39:14.844Z,1.90
2022-09-07T23:41:43.299Z,2.10
2022-09-07T23:44:11.752Z,1.70
2022-09-07T23:46:40.212Z,2.87
2022-09-07T23:49:08.691Z,2.73
2022-09-07T23:51:37.198Z,2.40
2022-09-07T23:54:07.121Z,1.90
2022-09-07T23:56:37.780Z,2.23
2022-09-07T23:59:06.515Z,2.23
